createdAt,value
2022-09-20T00:00:49.847Z,2.6
2022-09-20T00:02:50.136Z,2.7
2022-09-20T00:04:50.391Z,2.8
2022-09-20T00:06:49.724Z,3.9
2022-09-20T00:08:50.501Z,2.6
2022-09-20T00:10:50.318Z,2.6
2022-09-20T00:12:50.280Z,3.0
2022-09-20T00:14:50.019Z,3.7
2022-09-20T00:16:50.270Z,2.5
2022-09-20T00:18:49.542Z,2.5
2022-09-20T00:20:49.778Z,5.7
2022-09-20T00:22:49.663Z,3.0
2022-09-20T00:24:49.987Z,2.8
2022-09-20T00:26:50.221Z,3.5
2022-09-20T00:28:50.187Z,3.5
2022-09-20T00:30:50.216Z,2.5
2022-09-20T00:32:50.017Z,3.0
2022-09-20T00:34:50.205Z,2.6
2022-09-20T00:36:50.503Z,2.6
2022-09-20T00:38:49.696Z,2.5
2022-09-20T00:40:49.652Z,2.5
2022-09-20T00:42:50.493Z,2.8
2022-09-20T00:44:50.420Z,3.0
2022-09-20T00:46:49.759Z,2.5
2022-09-20T00:48:49.847Z,2.5
2022-09-20T00:50:49.866Z,2.5
2022-09-20T00:52:49.760Z,2.5
2022-09-20T00:54:49.764Z,2.5
2022-09-20T00:56:50.014Z,2.5
2022-09-20T00:58:49.834Z,2.5
2022-09-20T01:00:49.727Z,2.9
2022-09-20T01:02:49.970Z,3.8
2022-09-20T01:04:50.134Z,3.8
2022-09-20T01:06:50.302Z,3.5
2022-09-20T01:08:50.097Z,3.5
2022-09-20T01:10:49.819Z,3.7
2022-09-20T01:12:49.657Z,2.5
2022-09-20T01:14:50.449Z,6.2
2022-09-20T01:16:49.639Z,6.2
2022-09-20T01:18:49.670Z,2.7
2022-09-20T01:20:49.739Z,2.6
2022-09-20T01:22:49.925Z,2.9
2022-09-20T01:24:49.810Z,2.9
2022-09-20T01:26:50.324Z,2.9
2022-09-20T01:28:50.262Z,2.6
2022-09-20T01:30:50.251Z,2.6
2022-09-20T01:32:50.036Z,4.0
2022-09-20T01:34:50.345Z,4.0
2022-09-20T01:36:50.465Z,4.0
2022-09-20T01:38:50.370Z,3.7
2022-09-20T01:40:50.139Z,3.0
2022-09-20T01:42:50.008Z,3.0
2022-09-20T01:44:49.770Z,3.0
2022-09-20T01:46:50.147Z,2.6
2022-09-20T01:48:50.233Z,4.1
2022-09-20T01:50:50.212Z,3.4
2022-09-20T01:52:50.038Z,3.9
2022-09-20T01:54:49.987Z,2.8
2022-09-20T01:56:50.402Z,2.8
2022-09-20T01:59:01.815Z,4.1
2022-09-20T02:00:49.711Z,2.9
2022-09-20T02:02:49.960Z,3.0
2022-09-20T02:04:49.915Z,3.0
2022-09-20T02:06:49.591Z,4.1
2022-09-20T02:08:49.952Z,2.8
2022-09-20T02:10:50.041Z,3.1
2022-09-20T02:12:50.111Z,3.1
2022-09-20T02:14:50.156Z,4.8
2022-09-20T02:16:50.432Z,4.8
2022-09-20T02:18:49.839Z,5.9
2022-09-20T02:20:49.599Z,4.3
2022-09-20T02:22:50.421Z,2.7
2022-09-20T02:24:49.579Z,2.7
2022-09-20T02:26:49.827Z,2.8
2022-09-20T02:28:49.567Z,4.8
2022-09-20T02:30:50.423Z,4.3
2022-09-20T02:32:50.302Z,3.5
2022-09-20T02:34:49.664Z,3.5
2022-09-20T02:36:49.928Z,4.2
2022-09-20T02:38:49.717Z,4.0
2022-09-20T02:40:49.629Z,6.5
2022-09-20T02:42:50.515Z,3.3
2022-09-20T02:44:50.522Z,3.3
2022-09-20T02:46:49.559Z,4.4
2022-09-20T02:48:49.591Z,5.1
2022-09-20T02:50:49.695Z,5.1
2022-09-20T02:52:49.707Z,5.1
2022-09-20T02:54:49.554Z,3.5
2022-09-20T02:56:49.879Z,4.7
2022-09-20T02:58:49.772Z,5.6
2022-09-20T03:00:49.743Z,4.9
2022-09-20T03:02:49.838Z,4.9
2022-09-20T03:04:50.148Z,3.4
2022-09-20T03:06:50.375Z,3.3
2022-09-20T03:08:50.300Z,5.0
2022-09-20T03:10:50.200Z,6.4
2022-09-20T03:12:50.045Z,6.4
2022-09-20T03:14:49.927Z,5.0
2022-09-20T03:16:52.186Z,4.4
2022-09-20T03:18:49.935Z,4.4
2022-09-20T03:20:49.623Z,3.5
2022-09-20T03:22:49.638Z,3.5
2022-09-20T03:24:49.608Z,4.0
2022-09-20T03:26:49.736Z,6.2
2022-09-20T03:28:49.674Z,4.9
2022-09-20T03:30:49.639Z,4.5
2022-09-20T03:32:50.514Z,4.5
2022-09-20T03:34:49.752Z,3.9
2022-09-20T03:36:49.910Z,4.4
2022-09-20T03:38:49.770Z,4.4
2022-09-20T03:40:49.739Z,4.3
2022-09-20T03:42:50.151Z,3.4
2022-09-20T03:44:50.068Z,3.5
2022-09-20T03:46:50.330Z,6.2
2022-09-20T03:48:50.232Z,6.0
2022-09-20T03:50:50.156Z,6.0
2022-09-20T03:52:50.178Z,5.9
2022-09-20T03:54:50.163Z,4.3
2022-09-20T03:56:50.407Z,3.4
2022-09-20T03:58:50.223Z,4.8
2022-09-20T04:00:50.359Z,4.8
2022-09-20T04:02:49.598Z,4.6
2022-09-20T04:04:49.877Z,4.2
2022-09-20T04:06:50.177Z,4.2
2022-09-20T04:08:50.101Z,3.9
2022-09-20T04:10:50.175Z,3.9
2022-09-20T04:12:50.238Z,4.0
2022-09-20T04:14:50.069Z,4.1
2022-09-20T04:16:50.431Z,4.4
2022-09-20T04:18:49.906Z,5.2
2022-09-20T04:20:49.706Z,5.2
2022-09-20T04:22:50.528Z,5.3
2022-09-20T04:24:50.340Z,6.3
2022-09-20T04:26:49.575Z,5.3
2022-09-20T04:28:50.272Z,5.3
2022-09-20T04:30:50.280Z,4.3
2022-09-20T04:32:50.253Z,7.7
2022-09-20T04:34:50.430Z,4.7
2022-09-20T04:36:49.748Z,5.7
2022-09-20T04:38:49.795Z,5.7
2022-09-20T04:40:49.750Z,5.5
2022-09-20T04:42:49.765Z,7.2
2022-09-20T04:44:49.709Z,5.7
2022-09-20T04:46:52.778Z,5.7
2022-09-20T04:48:50.157Z,6.0
2022-09-20T04:50:50.084Z,4.3
2022-09-20T04:52:50.026Z,5.0
2022-09-20T04:54:49.802Z,5.2
2022-09-20T04:56:50.189Z,6.9
2022-09-20T04:58:49.991Z,6.9
2022-09-20T05:00:50.106Z,6.3
2022-09-20T05:02:50.294Z,6.0
2022-09-20T05:04:50.171Z,8.5
2022-09-20T05:06:49.907Z,5.7
2022-09-20T05:08:49.908Z,5.7
2022-09-20T05:10:50.041Z,5.3
2022-09-20T05:12:49.885Z,8.0
2022-09-20T05:14:49.691Z,6.2
2022-09-20T05:16:50.193Z,6.2
2022-09-20T05:18:50.366Z,8.3
2022-09-20T05:20:50.343Z,6.6
2022-09-20T05:22:50.237Z,8.4
2022-09-20T05:24:49.963Z,7.0
2022-09-20T05:26:50.099Z,5.9
2022-09-20T05:28:49.994Z,5.9
2022-09-20T05:30:49.921Z,5.9
2022-09-20T05:32:49.822Z,5.9
2022-09-20T05:34:50.227Z,5.9
2022-09-20T05:36:50.465Z,7.0
2022-09-20T05:38:50.309Z,7.0
2022-09-20T05:40:50.290Z,6.8
2022-09-20T05:42:50.176Z,6.8
2022-09-20T05:44:49.938Z,6.5
2022-09-20T05:46:50.269Z,6.5
2022-09-20T05:48:50.152Z,5.5
2022-09-20T05:50:50.252Z,6.1
2022-09-20T05:52:50.201Z,6.1
2022-09-20T05:54:50.132Z,5.3
2022-09-20T05:56:50.538Z,5.3
2022-09-20T05:58:50.554Z,9.0
2022-09-20T06:00:50.561Z,7.1
2022-09-20T06:02:49.837Z,7.3
2022-09-20T06:04:49.585Z,7.3
2022-09-20T06:06:49.995Z,5.9
2022-09-20T06:08:49.945Z,6.0
2022-09-20T06:10:50.133Z,7.7
2022-09-20T06:12:50.039Z,5.9
2022-09-20T06:14:49.878Z,5.9
2022-09-20T06:16:49.947Z,6.7
2022-09-20T06:18:50.137Z,5.0
2022-09-20T06:20:50.049Z,8.7
2022-09-20T06:22:50.031Z,7.0
2022-09-20T06:24:49.940Z,7.0
2022-09-20T06:26:50.159Z,5.0
2022-09-20T06:28:50.281Z,5.0
2022-09-20T06:30:50.631Z,6.6
2022-09-20T06:32:49.922Z,6.8
2022-09-20T06:34:49.647Z,6.8
2022-09-20T06:36:49.855Z,6.7
2022-09-20T06:38:49.854Z,5.9
2022-09-20T06:40:49.677Z,5.9
2022-09-20T06:42:49.624Z,13.0
2022-09-20T06:44:49.581Z,13.0
2022-09-20T06:46:50.030Z,5.8
2022-09-20T06:48:49.942Z,6.2
2022-09-20T06:50:49.871Z,6.4
2022-09-20T06:52:49.925Z,7.9
2022-09-20T06:54:49.887Z,7.9
2022-09-20T06:56:50.224Z,6.6
2022-09-20T06:58:50.090Z,8.0
2022-09-20T07:00:49.962Z,7.6
2022-09-20T07:02:50.174Z,5.7
2022-09-20T07:04:50.507Z,5.7
2022-09-20T07:06:49.931Z,6.7
2022-09-20T07:08:49.899Z,7.0
2022-09-20T07:10:49.859Z,7.5
2022-09-20T07:12:50.025Z,6.1
2022-09-20T07:14:49.969Z,6.1
2022-09-20T07:16:50.397Z,6.9
2022-09-20T07:18:49.620Z,7.5
2022-09-20T07:20:49.606Z,5.9
2022-09-20T07:22:49.860Z,5.9
2022-09-20T07:24:49.684Z,7.7
2022-09-20T07:26:49.926Z,7.7
2022-09-20T07:28:49.844Z,10.9
2022-09-20T07:30:49.719Z,10.7
2022-09-20T07:32:49.645Z,10.7
2022-09-20T07:34:50.159Z,9.3
2022-09-20T07:36:50.164Z,13.2
2022-09-20T07:38:50.132Z,12.7
2022-09-20T07:40:50.220Z,12.7
2022-09-20T07:42:53.061Z,7.5
2022-09-20T07:44:50.379Z,10.7
2022-09-20T07:46:49.723Z,9.0
2022-09-20T07:48:49.759Z,6.3
2022-09-20T07:50:50.550Z,9.2
2022-09-20T07:52:50.505Z,9.2
2022-09-20T07:54:50.385Z,7.8
2022-09-20T07:56:49.918Z,5.8
2022-09-20T07:58:52.482Z,7.3
2022-09-20T08:00:49.635Z,7.3
2022-09-20T08:02:50.205Z,7.1
2022-09-20T08:04:49.849Z,5.6
2022-09-20T08:06:50.237Z,6.3
2022-09-20T08:08:50.211Z,6.3
2022-09-20T08:10:50.342Z,5.9
2022-09-20T08:14:50.370Z,6.0
2022-09-20T08:16:49.859Z,6.1
2022-09-20T08:18:50.156Z,7.6
2022-09-20T08:20:50.191Z,7.6
2022-09-20T08:23:06.617Z,4.1
2022-09-20T08:24:49.882Z,5.2
2022-09-20T08:26:50.200Z,4.1
2022-09-20T08:28:50.268Z,4.1
2022-09-20T08:30:50.101Z,3.5
2022-09-20T08:32:50.119Z,3.8
2022-09-20T08:34:49.669Z,4.0
2022-09-20T08:36:50.029Z,4.5
2022-09-20T08:40:49.992Z,6.7
2022-09-20T08:42:50.108Z,5.6
2022-09-20T08:44:57.723Z,6.8
2022-09-20T08:46:50.515Z,6.8
2022-09-20T08:48:49.609Z,7.3
2022-09-20T08:50:49.616Z,5.0
2022-09-20T08:52:49.864Z,7.2
2022-09-20T08:54:49.786Z,4.1
2022-09-20T08:56:49.925Z,5.3
2022-09-20T08:58:49.745Z,5.3
2022-09-20T09:00:49.797Z,5.3
2022-09-20T09:02:49.830Z,7.4
2022-09-20T09:04:50.382Z,3.6
2022-09-20T09:06:49.646Z,5.6
2022-09-20T09:08:49.706Z,5.6
2022-09-20T09:10:49.880Z,5.3
2022-09-20T09:12:49.782Z,3.8
2022-09-20T09:14:49.630Z,4.5
2022-09-20T09:16:49.867Z,4.5
2022-09-20T09:18:50.149Z,4.5
2022-09-20T09:20:50.115Z,3.9
2022-09-20T09:22:50.075Z,3.9
2022-09-20T09:24:50.065Z,2.5
2022-09-20T09:26:50.105Z,2.5
2022-09-20T09:28:50.093Z,5.8
2022-09-20T09:30:50.156Z,2.8
2022-09-20T09:32:50.167Z,3.2
2022-09-20T09:34:50.473Z,3.2
2022-09-20T09:36:49.823Z,2.0
2022-09-20T09:38:49.967Z,2.0
2022-09-20T09:40:49.831Z,3.1
2022-09-20T09:42:49.812Z,3.9
2022-09-20T09:44:49.656Z,3.9
2022-09-20T09:46:50.093Z,3.1
2022-09-20T09:48:50.172Z,1.8
2022-09-20T09:50:50.159Z,2.8
2022-09-20T09:52:50.264Z,3.3
2022-09-20T09:54:50.283Z,3.8
2022-09-20T09:56:49.645Z,3.8
2022-09-20T09:58:49.747Z,2.6
2022-09-20T10:00:49.881Z,2.3
2022-09-20T10:02:50.194Z,4.9
2022-09-20T10:04:49.616Z,2.7
2022-09-20T10:06:52.318Z,2.7
2022-09-20T10:08:49.562Z,1.8
2022-09-20T10:10:50.569Z,5.6
2022-09-20T10:12:50.529Z,4.6
2022-09-20T10:14:50.455Z,4.6
2022-09-20T10:16:49.876Z,3.0
2022-09-20T10:18:50.361Z,3.2
2022-09-20T10:20:50.279Z,2.9
2022-09-20T10:23:06.996Z,3.1
2022-09-20T10:24:51.597Z,3.1
2022-09-20T10:26:50.164Z,2.7
2022-09-20T10:28:50.162Z,2.4
2022-09-20T10:30:50.108Z,4.3
2022-09-20T10:32:50.146Z,2.1
2022-09-20T10:34:49.639Z,2.1
2022-09-20T10:36:50.001Z,4.3
2022-09-20T10:38:50.018Z,4.1
2022-09-20T10:40:49.836Z,2.6
2022-09-20T10:42:49.918Z,2.3
2022-09-20T10:44:49.748Z,2.3
2022-09-20T10:46:50.126Z,2.1
2022-09-20T10:48:50.406Z,1.9
2022-09-20T10:50:50.188Z,2.4
2022-09-20T10:52:50.139Z,2.4
2022-09-20T10:54:50.219Z,4.2
2022-09-20T10:56:49.565Z,2.0
2022-09-20T10:58:49.929Z,3.5
2022-09-20T11:00:49.852Z,1.9
2022-09-20T11:02:50.118Z,1.9
2022-09-20T11:04:49.600Z,3.3
2022-09-20T11:06:49.950Z,2.6
2022-09-20T11:08:49.714Z,4.2
2022-09-20T11:10:49.565Z,4.2
2022-09-20T11:12:50.536Z,3.1
2022-09-20T11:14:50.438Z,3.1
2022-09-20T11:16:49.941Z,2.5
2022-09-20T11:18:50.235Z,2.4
2022-09-20T11:20:50.106Z,3.9
2022-09-20T11:22:49.957Z,2.1
2022-09-20T11:24:49.742Z,2.1
2022-09-20T11:26:50.042Z,1.9
2022-09-20T11:28:50.092Z,1.9
2022-09-20T11:30:50.050Z,1.9
2022-09-20T11:32:50.101Z,1.9
2022-09-20T11:34:49.597Z,6.6
2022-09-20T11:36:50.041Z,5.9
2022-09-20T11:38:53.168Z,5.9
2022-09-20T11:40:49.623Z,6.2
2022-09-20T11:42:50.378Z,3.8
2022-09-20T11:44:50.204Z,1.7
2022-09-20T11:46:50.374Z,1.7
2022-09-20T11:48:50.253Z,1.2
2022-09-20T11:50:50.471Z,1.2
2022-09-20T11:52:50.358Z,2.1
2022-09-20T11:54:50.387Z,3.1
2022-09-20T11:56:49.685Z,1.6
2022-09-20T11:58:49.796Z,1.2
2022-09-20T12:00:49.643Z,1.2
2022-09-20T12:02:49.698Z,1.8
2022-09-20T12:04:49.718Z,1.4
2022-09-20T12:06:50.027Z,1.3
2022-09-20T12:08:49.913Z,1.3
2022-09-20T12:10:50.483Z,1.3
2022-09-20T12:12:49.719Z,1.3
2022-09-20T12:14:49.797Z,3.0
2022-09-20T12:16:50.078Z,1.9
2022-09-20T12:18:50.430Z,1.3
2022-09-20T12:20:50.363Z,1.3
2022-09-20T12:22:50.213Z,1.4
2022-09-20T12:24:50.139Z,1.3
2022-09-20T12:26:50.473Z,1.3
2022-09-20T12:28:50.354Z,1.8
2022-09-20T12:30:50.545Z,1.8
2022-09-20T12:32:50.500Z,1.2
2022-09-20T12:34:49.762Z,0.9
2022-09-20T12:36:50.004Z,2.1
2022-09-20T12:38:49.908Z,1.6
2022-09-20T12:40:49.790Z,1.6
2022-09-20T12:42:49.887Z,1.3
2022-09-20T12:44:49.805Z,1.8
2022-09-20T12:46:50.092Z,1.3
2022-09-20T12:48:49.835Z,1.3
2022-09-20T12:50:49.606Z,2.0
2022-09-20T12:52:49.740Z,2.0
2022-09-20T12:54:49.653Z,1.5
2022-09-20T12:56:49.945Z,1.5
2022-09-20T12:58:49.891Z,1.7
2022-09-20T13:00:49.868Z,2.6
2022-09-20T13:02:50.369Z,2.2
2022-09-20T13:04:49.619Z,1.1
2022-09-20T13:06:49.992Z,1.1
2022-09-20T13:08:49.930Z,1.3
2022-09-20T13:10:49.745Z,2.4
2022-09-20T13:12:53.901Z,3.5
2022-09-20T13:14:49.643Z,2.4
2022-09-20T13:16:49.804Z,2.2
2022-09-20T13:18:49.760Z,2.2
2022-09-20T13:20:50.475Z,2.4
2022-09-20T13:22:50.340Z,2.4
2022-09-20T13:24:50.228Z,1.6
2022-09-20T13:26:49.576Z,1.8
2022-09-20T13:28:49.706Z,1.8
2022-09-20T13:30:50.368Z,1.4
2022-09-20T13:32:50.497Z,3.3
2022-09-20T13:34:49.958Z,1.7
2022-09-20T13:36:54.117Z,1.7
2022-09-20T13:38:49.986Z,1.6
2022-09-20T13:40:49.687Z,2.8
2022-09-20T13:42:49.938Z,2.9
2022-09-20T13:44:50.148Z,1.4
2022-09-20T13:46:50.294Z,1.4
2022-09-20T13:48:50.430Z,1.9
2022-09-20T13:50:53.456Z,2.8
2022-09-20T13:52:49.863Z,3.1
2022-09-20T13:54:49.826Z,1.6
2022-09-20T13:56:50.285Z,1.6
2022-09-20T13:58:50.075Z,2.0
2022-09-20T14:00:49.928Z,1.8
2022-09-20T14:02:50.126Z,1.4
2022-09-20T14:04:50.420Z,1.4
2022-09-20T14:06:49.672Z,1.4
2022-09-20T14:08:49.793Z,1.5
2022-09-20T14:10:49.708Z,1.0
2022-09-20T14:12:49.679Z,1.0
2022-09-20T14:14:49.822Z,2.6
2022-09-20T14:16:49.924Z,2.6
2022-09-20T14:18:49.845Z,0.8
2022-09-20T14:20:50.539Z,1.4
2022-09-20T14:22:50.545Z,1.3
2022-09-20T14:24:50.343Z,2.2
2022-09-20T14:26:50.398Z,2.2
2022-09-20T14:28:50.208Z,0.9
2022-09-20T14:30:49.961Z,0.9
2022-09-20T14:32:50.158Z,1.1
2022-09-20T14:34:49.582Z,0.9
2022-09-20T14:36:49.929Z,0.9
2022-09-20T14:38:49.686Z,0.8
2022-09-20T14:40:49.549Z,1.6
2022-09-20T14:42:49.611Z,1.4
2022-09-20T14:44:50.449Z,1.4
2022-09-20T14:46:49.764Z,0.9
2022-09-20T14:48:49.567Z,1.9
2022-09-20T14:50:50.409Z,1.6
2022-09-20T14:52:50.436Z,1.7
2022-09-20T14:54:50.305Z,1.7
2022-09-20T14:56:50.516Z,0.9
2022-09-20T14:58:50.538Z,0.9
2022-09-20T15:00:50.402Z,1.5
2022-09-20T15:02:49.657Z,1.1
2022-09-20T15:04:50.347Z,1.1
2022-09-20T15:06:50.359Z,2.0
2022-09-20T15:08:50.140Z,1.5
2022-09-20T15:10:50.163Z,1.3
2022-09-20T15:12:50.000Z,1.3
2022-09-20T15:14:49.794Z,1.4
2022-09-20T15:16:50.287Z,1.9
2022-09-20T15:18:50.074Z,1.7
2022-09-20T15:20:50.026Z,3.6
2022-09-20T15:22:49.993Z,3.6
2022-09-20T15:24:49.930Z,1.7
2022-09-20T15:26:50.161Z,1.3
2022-09-20T15:28:49.857Z,2.5
2022-09-20T15:30:49.732Z,1.2
2022-09-20T15:32:49.580Z,1.2
2022-09-20T15:34:50.106Z,1.6
2022-09-20T15:36:50.278Z,1.2
2022-09-20T15:38:49.877Z,1.2
2022-09-20T15:40:49.791Z,1.4
2022-09-20T15:42:49.773Z,1.4
2022-09-20T15:44:49.560Z,1.6
2022-09-20T15:46:49.821Z,1.9
2022-09-20T15:48:49.750Z,1.5
2022-09-20T15:50:50.467Z,1.2
2022-09-20T15:52:50.510Z,1.2
2022-09-20T15:54:50.307Z,2.2
2022-09-20T15:56:50.550Z,1.1
2022-09-20T15:58:50.486Z,1.7
2022-09-20T16:00:50.370Z,1.7
2022-09-20T16:02:50.394Z,1.3
2022-09-20T16:04:49.620Z,2.4
2022-09-20T16:06:49.833Z,1.3
2022-09-20T16:08:49.631Z,1.3
2022-09-20T16:10:50.383Z,1.9
2022-09-20T16:12:50.372Z,1.1
2022-09-20T16:14:50.164Z,1.7
2022-09-20T16:16:50.202Z,1.2
2022-09-20T16:18:50.094Z,1.3
2022-09-20T16:20:49.934Z,1.3
2022-09-20T16:22:49.883Z,2.2
2022-09-20T16:24:49.694Z,1.0
2022-09-20T16:26:49.959Z,1.0
2022-09-20T16:28:49.697Z,1.1
2022-09-20T16:30:50.454Z,1.0
2022-09-20T16:32:50.523Z,0.9
2022-09-20T16:34:50.159Z,1.2
2022-09-20T16:36:50.302Z,1.4
2022-09-20T16:38:50.057Z,2.1
2022-09-20T16:40:49.830Z,2.1
2022-09-20T16:42:54.644Z,1.2
2022-09-20T16:44:50.361Z,1.4
2022-09-20T16:46:49.695Z,1.2
2022-09-20T16:48:49.677Z,1.2
2022-09-20T16:50:50.439Z,2.1
2022-09-20T16:52:50.324Z,1.9
2022-09-20T16:54:50.073Z,1.3
2022-09-20T16:56:50.355Z,1.3
2022-09-20T16:58:50.301Z,1.4
2022-09-20T17:00:50.257Z,1.3
2022-09-20T17:02:50.301Z,1.0
2022-09-20T17:04:49.613Z,1.2
2022-09-20T17:06:50.192Z,1.1
2022-09-20T17:08:50.009Z,1.1
2022-09-20T17:10:49.981Z,1.2
2022-09-20T17:12:50.052Z,2.2
2022-09-20T17:14:49.977Z,1.5
2022-09-20T17:16:50.292Z,1.2
2022-09-20T17:18:50.167Z,1.2
2022-09-20T17:20:50.202Z,1.2
2022-09-20T17:22:50.122Z,1.5
2022-09-20T17:24:50.030Z,1.4
2022-09-20T17:26:50.212Z,1.9
2022-09-20T17:28:49.656Z,1.9
2022-09-20T17:30:50.528Z,1.6
2022-09-20T17:32:50.377Z,1.7
2022-09-20T17:34:49.844Z,2.0
2022-09-20T17:36:50.244Z,2.0
2022-09-20T17:38:49.541Z,1.8
2022-09-20T17:40:50.349Z,2.1
2022-09-20T17:42:50.390Z,2.2
2022-09-20T17:44:50.177Z,1.8
2022-09-20T17:46:50.378Z,1.9
2022-09-20T17:48:50.109Z,1.9
2022-09-20T17:50:50.049Z,2.1
2022-09-20T17:52:50.105Z,2.1
2022-09-20T17:54:50.030Z,2.1
2022-09-20T17:56:50.050Z,2.1
2022-09-20T17:58:49.998Z,2.3
2022-09-20T18:00:49.890Z,2.0
2022-09-20T18:02:50.107Z,2.2
2022-09-20T18:04:50.390Z,2.0
2022-09-20T18:06:49.559Z,2.0
2022-09-20T18:08:50.291Z,2.3
2022-09-20T18:10:50.278Z,2.8
2022-09-20T18:12:50.210Z,2.3
2022-09-20T18:14:49.920Z,3.0
2022-09-20T18:16:50.013Z,3.0
2022-09-20T18:18:49.797Z,2.9
2022-09-20T18:20:49.836Z,2.8
2022-09-20T18:22:49.625Z,2.9
2022-09-20T18:24:50.354Z,2.9
2022-09-20T18:26:50.392Z,2.8
2022-09-20T18:28:50.138Z,3.4
2022-09-20T18:30:50.036Z,2.6
2022-09-20T18:32:49.923Z,2.9
2022-09-20T18:34:50.356Z,2.9
2022-09-20T18:36:49.590Z,3.9
2022-09-20T18:38:49.541Z,4.1
2022-09-20T18:40:50.398Z,4.1
2022-09-20T18:42:50.293Z,4.1
2022-09-20T18:44:50.026Z,3.0
2022-09-20T18:46:49.974Z,3.2
2022-09-20T18:48:50.282Z,5.2
2022-09-20T18:50:50.229Z,3.1
2022-09-20T18:52:50.003Z,3.1
2022-09-20T18:54:49.900Z,3.1
2022-09-20T18:56:49.883Z,3.5
2022-09-20T18:58:49.881Z,3.5
2022-09-20T19:00:49.699Z,3.7
2022-09-20T19:02:50.329Z,3.7
2022-09-20T19:04:49.731Z,3.4
2022-09-20T19:06:49.877Z,4.5
2022-09-20T19:08:49.737Z,4.5
2022-09-20T19:10:49.549Z,3.6
2022-09-20T19:12:49.619Z,4.2
2022-09-20T19:14:50.432Z,4.2
2022-09-20T19:16:50.386Z,3.8
2022-09-20T19:18:50.236Z,4.3
2022-09-20T19:20:49.978Z,4.3
2022-09-20T19:22:49.883Z,3.6
2022-09-20T19:24:49.673Z,3.6
2022-09-20T19:26:49.695Z,4.5
2022-09-20T19:28:50.535Z,4.9
2022-09-20T19:30:50.398Z,7.3
2022-09-20T19:32:49.966Z,7.3
2022-09-20T19:34:50.286Z,8.4
2022-09-20T19:36:50.335Z,6.9
2022-09-20T19:38:50.237Z,7.7
2022-09-20T19:40:49.940Z,6.0
2022-09-20T19:42:49.742Z,6.0
2022-09-20T19:44:49.696Z,4.2
2022-09-20T19:46:49.905Z,5.2
2022-09-20T19:48:50.034Z,3.8
2022-09-20T19:50:49.735Z,3.6
2022-09-20T19:52:50.527Z,3.6
2022-09-20T19:54:50.529Z,3.7
2022-09-20T19:56:50.377Z,4.7
2022-09-20T19:58:50.231Z,3.8
2022-09-20T20:00:50.154Z,3.8
2022-09-20T20:02:50.103Z,4.2
2022-09-20T20:04:49.567Z,4.4
2022-09-20T20:06:49.681Z,4.0
2022-09-20T20:08:50.532Z,3.6
2022-09-20T20:10:50.447Z,3.6
2022-09-20T20:12:50.208Z,4.0
2022-09-20T20:14:50.188Z,4.4
2022-09-20T20:16:50.428Z,3.2
2022-09-20T20:18:50.244Z,4.0
2022-09-20T20:20:50.141Z,4.0
2022-09-20T20:22:50.004Z,4.5
2022-09-20T20:24:49.933Z,4.5
2022-09-20T20:26:49.948Z,4.0
2022-09-20T20:28:49.868Z,4.8
2022-09-20T20:30:49.889Z,4.8
2022-09-20T20:32:50.227Z,4.2
2022-09-20T20:34:49.651Z,6.0
2022-09-20T20:36:49.797Z,4.5
2022-09-20T20:38:49.743Z,4.6
2022-09-20T20:40:49.786Z,4.6
2022-09-20T20:42:49.669Z,4.0
2022-09-20T20:44:49.665Z,4.5
2022-09-20T20:46:49.975Z,3.6
2022-09-20T20:48:49.784Z,5.3
2022-09-20T20:50:50.498Z,5.3
2022-09-20T20:52:50.267Z,4.0
2022-09-20T20:54:49.949Z,5.0
2022-09-20T20:56:50.193Z,4.4
2022-09-20T20:58:49.903Z,4.1
2022-09-20T21:00:49.791Z,4.1
2022-09-20T21:02:49.587Z,4.2
2022-09-20T21:04:49.954Z,4.5
2022-09-20T21:06:49.996Z,4.5
2022-09-20T21:08:50.094Z,5.2
2022-09-20T21:10:49.976Z,4.2
2022-09-20T21:12:49.979Z,3.7
2022-09-20T21:14:49.794Z,5.3
2022-09-20T21:16:50.098Z,4.2
2022-09-20T21:18:49.692Z,4.2
2022-09-20T21:20:49.603Z,7.6
2022-09-20T21:22:50.382Z,4.1
2022-09-20T21:24:50.133Z,4.9
2022-09-20T21:26:50.154Z,4.8
2022-09-20T21:28:49.986Z,4.8
2022-09-20T21:30:49.756Z,3.6
2022-09-20T21:32:49.903Z,3.5
2022-09-20T21:34:50.213Z,3.8
2022-09-20T21:36:50.419Z,3.3
2022-09-20T21:38:50.134Z,3.3
2022-09-20T21:40:49.869Z,3.6
2022-09-20T21:42:49.820Z,3.2
2022-09-20T21:44:49.694Z,3.9
2022-09-20T21:46:49.661Z,4.4
2022-09-20T21:48:49.677Z,4.4
2022-09-20T21:50:49.571Z,4.6
2022-09-20T21:52:50.443Z,3.3
2022-09-20T21:54:50.258Z,3.9
2022-09-20T21:56:50.513Z,4.8
2022-09-20T21:58:50.403Z,4.8
2022-09-20T22:00:50.285Z,4.9
2022-09-20T22:02:50.058Z,3.2
2022-09-20T22:04:50.354Z,3.7
2022-09-20T22:06:49.645Z,3.7
2022-09-20T22:08:49.612Z,3.8
2022-09-20T22:10:50.490Z,4.6
2022-09-20T22:12:50.398Z,4.3
2022-09-20T22:14:50.342Z,4.5
2022-09-20T22:16:50.523Z,4.5
2022-09-20T22:18:50.394Z,4.4
2022-09-20T22:20:50.200Z,4.1
2022-09-20T22:22:50.060Z,4.6
2022-09-20T22:24:50.054Z,4.8
2022-09-20T22:26:50.266Z,4.8
2022-09-20T22:28:50.015Z,6.0
2022-09-20T22:30:49.933Z,4.3
2022-09-20T22:32:49.854Z,4.9
2022-09-20T22:34:50.132Z,5.8
2022-09-20T22:36:50.489Z,5.8
2022-09-20T22:38:50.388Z,5.7
2022-09-20T22:40:50.414Z,7.1
2022-09-20T22:42:50.146Z,4.9
2022-09-20T22:44:49.927Z,4.9
2022-09-20T22:46:50.107Z,4.9
2022-09-20T22:48:49.907Z,4.6
2022-09-20T22:50:49.895Z,4.8
2022-09-20T22:52:49.842Z,3.9
2022-09-20T22:54:49.743Z,3.9
2022-09-20T22:56:50.028Z,3.7
2022-09-20T22:58:49.868Z,4.8
2022-09-20T23:00:49.783Z,4.3
2022-09-20T23:02:50.421Z,4.9
2022-09-20T23:04:50.006Z,4.9
2022-09-20T23:06:50.177Z,4.5
2022-09-20T23:08:49.938Z,4.4
2022-09-20T23:10:49.927Z,4.6
2022-09-20T23:12:49.753Z,4.3
2022-09-20T23:14:49.578Z,4.3
2022-09-20T23:16:49.862Z,4.8
2022-09-20T23:18:50.050Z,4.5
2022-09-20T23:20:50.024Z,4.6
2022-09-20T23:22:49.765Z,4.6
2022-09-20T23:24:49.590Z,4.6
2022-09-20T23:26:49.730Z,4.5
2022-09-20T23:28:50.469Z,4.2
2022-09-20T23:30:50.150Z,4.4
2022-09-20T23:32:50.413Z,4.4
2022-09-20T23:34:49.838Z,4.4
2022-09-20T23:36:50.108Z,5.4
2022-09-20T23:38:49.852Z,5.1
2022-09-20T23:40:50.510Z,5.2
2022-09-20T23:42:50.347Z,5.2
2022-09-20T23:44:49.977Z,4.7
2022-09-20T23:46:50.047Z,6.2
2022-09-20T23:48:50.007Z,4.8
2022-09-20T23:50:49.719Z,4.7
2022-09-20T23:52:50.456Z,4.7
2022-09-20T23:54:50.231Z,6.1
2022-09-20T23:56:50.275Z,5.4
2022-09-20T23:58:50.159Z,5.1
